createdAt,value
2018-11-06T00:03:11.514Z,92.3
2018-11-06T00:08:14.000Z,92.3
2018-11-06T00:13:16.384Z,92.4
2018-11-06T00:18:18.826Z,92.6
2018-11-06T00:23:21.266Z,92.7
2018-11-06T00:28:23.713Z,92.8
2018-11-06T00:33:26.159Z,92.9
2018-11-06T00:38:28.614Z,93
2018-11-06T00:43:31.021Z,93
2018-11-06T00:48:33.478Z,93.2
2018-11-06T00:53:35.899Z,93.1
2018-11-06T00:58:38.344Z,92.9
2018-11-06T01:03:40.836Z,92.9
2018-11-06T01:08:43.232Z,92.9
2018-11-06T01:13:45.680Z,92.9
2018-11-06T01:18:48.149Z,93.1
2018-11-06T01:23:50.539Z,93.2
2018-11-06T01:28:52.993Z,93.2
2018-11-06T01:33:55.429Z,93.2
2018-11-06T01:38:57.965Z,93.2
2018-11-06T01:44:00.305Z,93.4
2018-11-06T01:49:02.752Z,93.5
2018-11-06T01:54:05.326Z,93.6
2018-11-06T01:59:07.634Z,93.8
2018-11-06T02:04:10.068Z,93.7
2018-11-06T02:09:12.501Z,93.9
2018-11-06T02:14:14.954Z,93.8
2018-11-06T02:19:17.442Z,94
2018-11-06T02:24:19.827Z,94.2
2018-11-06T02:29:22.262Z,94.2
2018-11-06T02:34:24.714Z,94.2
2018-11-06T02:39:27.153Z,94.2
2018-11-06T02:44:29.587Z,94.3
2018-11-06T02:49:32.037Z,94.3
2018-11-06T02:54:34.476Z,94.2
2018-11-06T02:59:36.899Z,94.3
2018-11-06T03:04:39.373Z,94.4
2018-11-06T03:09:41.796Z,94.4
2018-11-06T03:14:44.235Z,94.5
2018-11-06T03:19:46.662Z,94.5
2018-11-06T03:24:49.110Z,94.6
2018-11-06T03:29:51.551Z,94.6
2018-11-06T03:34:53.993Z,94.6
2018-11-06T03:39:56.429Z,94.6
2018-11-06T03:44:58.873Z,94.8
2018-11-06T03:50:01.319Z,95
2018-11-06T03:55:03.750Z,95.2
2018-11-06T04:00:06.222Z,95.3
2018-11-06T04:05:08.645Z,95.4
2018-11-06T04:10:11.093Z,95.6
2018-11-06T04:15:13.511Z,95.7
2018-11-06T04:20:15.952Z,95.7
2018-11-06T04:25:18.396Z,95.6
2018-11-06T04:30:20.926Z,95.6
2018-11-06T04:35:23.283Z,95.7
2018-11-06T04:40:25.707Z,95.8
2018-11-06T04:45:28.164Z,95.7
2018-11-06T04:50:30.631Z,95.5
2018-11-06T04:55:33.040Z,95.5
2018-11-06T05:00:35.599Z,95.4
2018-11-06T05:05:38.018Z,95.4
2018-11-06T05:10:40.525Z,95.5
2018-11-06T05:15:42.939Z,95.5
2018-11-06T05:20:45.264Z,95.6
2018-11-06T05:25:47.753Z,95.7
2018-11-06T05:30:50.238Z,95.9
2018-11-06T05:35:52.693Z,96.2
2018-11-06T05:40:55.069Z,96.4
2018-11-06T05:45:57.440Z,96.3
2018-11-06T05:50:59.891Z,96.2
2018-11-06T05:56:02.343Z,96.2
2018-11-06T06:01:04.785Z,96.1
2018-11-06T06:06:07.214Z,96.2
2018-11-06T06:11:09.731Z,96.5
2018-11-06T06:16:12.105Z,96.4
2018-11-06T06:21:14.527Z,96.4
2018-11-06T06:26:16.968Z,96.4
2018-11-06T06:31:19.420Z,96.4
2018-11-06T06:36:21.847Z,96.4
2018-11-06T06:41:24.298Z,96.5
2018-11-06T06:46:26.783Z,96.4
2018-11-06T06:51:29.227Z,96.5
2018-11-06T06:56:31.611Z,96.6
2018-11-06T07:01:34.128Z,96.5
2018-11-06T07:06:36.493Z,96.5
2018-11-06T07:11:38.926Z,96.4
2018-11-06T07:16:41.356Z,96.4
2018-11-06T07:21:43.834Z,96.2
2018-11-06T07:26:46.246Z,96.2
2018-11-06T07:31:48.718Z,96.2
2018-11-06T07:36:51.138Z,96.2
2018-11-06T07:41:53.559Z,96.2
2018-11-06T07:46:56.004Z,96.2
2018-11-06T07:51:58.457Z,96.3
2018-11-06T07:57:00.913Z,96.3
2018-11-06T08:02:03.359Z,96.3
2018-11-06T08:07:05.762Z,96.2
2018-11-06T08:12:08.211Z,96
2018-11-06T08:17:10.644Z,95.7
2018-11-06T08:22:13.093Z,95.4
2018-11-06T08:27:15.548Z,95.2
2018-11-06T08:32:18.390Z,94.1
2018-11-06T08:37:25.420Z,93.9
2018-11-06T08:42:22.899Z,93.7
2018-11-06T08:47:25.290Z,93.3
2018-11-06T08:52:27.823Z,93.5
2018-11-06T09:02:32.655Z,92.7
2018-11-06T09:07:35.046Z,92.6
2018-11-06T09:12:37.567Z,92.5
2018-11-06T09:17:39.925Z,92.6
2018-11-06T09:22:42.388Z,92.7
2018-11-06T09:27:44.807Z,92.7
2018-11-06T09:32:47.270Z,92.6
2018-11-06T09:37:49.701Z,92.7
2018-11-06T09:42:52.135Z,92.7
2018-11-06T09:47:54.558Z,92.2
2018-11-06T09:52:57.061Z,91.8
2018-11-06T09:57:59.453Z,91.6
2018-11-06T10:03:01.947Z,89.6
2018-11-06T10:08:04.346Z,88.8
2018-11-06T10:13:06.799Z,88.7
2018-11-06T10:18:09.215Z,88.4
2018-11-06T10:23:11.687Z,86.4
2018-11-06T10:33:16.532Z,84
2018-11-06T10:38:18.995Z,82
2018-11-06T10:43:21.434Z,80.7
2018-11-06T10:48:23.855Z,76.1
2018-11-06T10:53:26.305Z,75.7
2018-11-06T10:58:28.752Z,76.1
2018-11-06T11:03:31.179Z,75.9
2018-11-06T11:08:33.616Z,70.1
2018-11-06T11:13:36.058Z,64.2
2018-11-06T11:18:38.505Z,57.6
2018-11-06T11:23:40.963Z,54.4
2018-11-06T11:28:43.408Z,52.6
2018-11-06T11:33:45.837Z,51.1
2018-11-06T11:38:48.262Z,50.1
2018-11-06T11:43:50.914Z,49.4
2018-11-06T11:48:53.141Z,47.4
2018-11-06T11:53:55.702Z,47.6
2018-11-06T11:58:58.070Z,46.5
2018-11-06T12:04:00.480Z,46.9
2018-11-06T12:09:03.040Z,46.1
2018-11-06T12:14:05.365Z,43.2
2018-11-06T12:19:07.810Z,43.6
2018-11-06T12:24:10.486Z,43.3
2018-11-06T12:29:12.693Z,42.2
2018-11-06T12:34:15.131Z,41.6
2018-11-06T12:39:17.563Z,41.2
2018-11-06T12:44:20.014Z,40.8
2018-11-06T12:49:22.461Z,39.9
2018-11-06T12:54:24.923Z,39.3
2018-11-06T12:59:27.330Z,39.5
2018-11-06T13:04:29.776Z,38.6
2018-11-06T13:09:32.236Z,38.5
2018-11-06T13:14:34.676Z,38.7
2018-11-06T13:19:37.108Z,39.9
2018-11-06T13:24:39.662Z,39.8
2018-11-06T13:29:41.997Z,40.5
2018-11-06T13:34:44.464Z,42
2018-11-06T13:39:46.871Z,44
2018-11-06T13:44:49.756Z,42.6
2018-11-06T13:49:51.787Z,42
2018-11-06T13:54:54.197Z,43.1
2018-11-06T13:59:56.695Z,42.5
2018-11-06T14:04:59.176Z,41.4
2018-11-06T14:10:01.589Z,40.7
2018-11-06T14:15:03.990Z,42.1
2018-11-06T14:20:06.431Z,44.6
2018-11-06T14:25:08.866Z,47.1
2018-11-06T14:30:11.326Z,50.1
2018-11-06T14:35:13.741Z,51.5
2018-11-06T14:40:16.189Z,52.9
2018-11-06T14:45:18.681Z,54.2
2018-11-06T14:50:21.090Z,55.6
2018-11-06T14:55:23.505Z,56.5
2018-11-06T15:00:25.943Z,57.4
2018-11-06T15:05:28.500Z,58
2018-11-06T15:10:31.124Z,59.3
2018-11-06T15:15:33.271Z,59.5
2018-11-06T15:20:35.724Z,60.6
2018-11-06T15:25:38.145Z,61.4
2018-11-06T15:30:40.570Z,63.5
2018-11-06T15:35:43.072Z,65.5
2018-11-06T15:40:45.509Z,68.2
2018-11-06T15:45:47.909Z,71.3
2018-11-06T15:50:50.341Z,73.3
2018-11-06T15:55:52.808Z,73.9
2018-11-06T16:00:55.239Z,75.8
2018-11-06T16:05:57.678Z,76.3
2018-11-06T16:11:00.101Z,78.6
2018-11-06T16:16:02.556Z,78.9
2018-11-06T16:21:05.086Z,80.3
2018-11-06T16:26:07.429Z,82.5
2018-11-06T16:31:09.862Z,83.4
2018-11-06T16:36:12.301Z,84.8
2018-11-06T16:41:14.750Z,86.1
2018-11-06T16:46:17.182Z,85.9
2018-11-06T16:51:19.614Z,87
2018-11-06T16:56:22.070Z,86.9
2018-11-06T17:01:24.529Z,87.6
2018-11-06T17:06:27.016Z,87.8
2018-11-06T17:11:29.407Z,87.3
2018-11-06T17:16:31.829Z,87.8
2018-11-06T17:21:34.274Z,90
2018-11-06T17:31:39.233Z,90.1
2018-11-06T17:36:41.599Z,90.5
2018-11-06T17:41:44.176Z,90.6
2018-11-06T17:46:46.502Z,90.8
2018-11-06T17:51:48.915Z,91.1
2018-11-06T17:56:51.394Z,90.9
2018-11-06T18:01:53.794Z,90.6
2018-11-06T18:06:56.227Z,90.7
2018-11-06T18:11:58.817Z,91.4
2018-11-06T18:17:01.138Z,91.3
2018-11-06T18:22:03.565Z,91.7
2018-11-06T18:27:06.019Z,91.6
2018-11-06T18:32:08.543Z,92.2
2018-11-06T18:37:10.894Z,92.2
2018-11-06T18:42:13.312Z,92.2
2018-11-06T18:47:15.826Z,92
2018-11-06T18:52:18.201Z,92.2
2018-11-06T18:57:20.626Z,92.4
2018-11-06T19:02:23.077Z,92.9
2018-11-06T19:07:25.499Z,93.1
2018-11-06T19:12:28.030Z,93.2
2018-11-06T19:17:30.403Z,93.3
2018-11-06T19:22:32.831Z,93.4
2018-11-06T19:27:35.315Z,93.5
2018-11-06T19:32:37.731Z,93.7
2018-11-06T19:37:40.163Z,93.8
2018-11-06T19:42:42.632Z,94.1
2018-11-06T19:47:45.045Z,94.1
2018-11-06T19:52:47.508Z,94.4
2018-11-06T19:57:49.930Z,94.5
2018-11-06T20:02:52.428Z,94.6
2018-11-06T20:07:54.789Z,94.4
2018-11-06T20:12:57.225Z,94.5
2018-11-06T20:17:59.772Z,94.7
2018-11-06T20:23:02.130Z,94.8
2018-11-06T20:28:04.546Z,95.3
2018-11-06T20:33:07.037Z,95
2018-11-06T20:38:09.553Z,94.9
2018-11-06T20:43:12.003Z,95.2
2018-11-06T20:48:14.596Z,95.8
2018-11-06T20:53:16.748Z,95.7
2018-11-06T20:58:19.190Z,95.9
2018-11-06T21:03:21.629Z,95.9
2018-11-06T21:08:24.087Z,96
2018-11-06T21:13:26.557Z,96
2018-11-06T21:18:29.081Z,95.9
2018-11-06T21:23:31.403Z,95.5
2018-11-06T21:28:33.831Z,95.3
2018-11-06T21:33:36.372Z,95.4
2018-11-06T21:38:38.742Z,95.2
2018-11-06T21:43:41.260Z,95.2
2018-11-06T21:48:43.593Z,95.3
2018-11-06T21:53:46.019Z,95.4
2018-11-06T21:58:48.623Z,95.4
2018-11-06T22:03:50.976Z,95.4
2018-11-06T22:08:53.353Z,95.3
2018-11-06T22:13:55.888Z,95.4
2018-11-06T22:18:58.237Z,95.5
2018-11-06T22:24:00.668Z,95.3
2018-11-06T22:29:03.156Z,95.3
2018-11-06T22:34:05.561Z,95.2
2018-11-06T22:39:07.988Z,95.2
2018-11-06T22:44:10.444Z,95.2
2018-11-06T22:49:12.933Z,95.4
2018-11-06T22:54:15.322Z,95.4
2018-11-06T22:59:17.752Z,95.5
2018-11-06T23:04:20.191Z,95.5
2018-11-06T23:09:22.635Z,95.3
2018-11-06T23:14:25.086Z,95.2
2018-11-06T23:19:27.516Z,95.2
2018-11-06T23:24:29.957Z,95.2
2018-11-06T23:29:32.384Z,95.2
2018-11-06T23:34:34.841Z,95
2018-11-06T23:39:37.269Z,95
2018-11-06T23:44:39.725Z,95
2018-11-06T23:49:42.155Z,95
2018-11-06T23:54:44.606Z,95.1
2018-11-06T23:59:47.040Z,95.1
